createdAt,value
2022-08-12T00:01:11.620Z,50.93
2022-08-12T00:03:56.757Z,50.97
2022-08-12T00:06:43.026Z,50.81
2022-08-12T00:09:28.356Z,50.91
2022-08-12T00:12:14.013Z,50.67
2022-08-12T00:15:02.438Z,50.95
2022-08-12T00:17:49.153Z,51.11
2022-08-12T00:20:34.718Z,51.29
2022-08-12T00:23:20.483Z,50.83
2022-08-12T00:26:23.294Z,51.05
2022-08-12T00:29:12.586Z,51.04
2022-08-12T00:32:00.491Z,50.77
2022-08-12T00:34:49.084Z,50.88
2022-08-12T00:37:39.464Z,51.16
2022-08-12T00:40:28.911Z,51.23
2022-08-12T00:42:57.498Z,51.18
2022-08-12T00:45:24.842Z,50.97
2022-08-12T00:47:53.665Z,50.84
2022-08-12T00:50:23.374Z,51.02
2022-08-12T00:52:52.803Z,51.30
2022-08-12T00:55:21.340Z,51.31
2022-08-12T00:57:50.819Z,51.33
2022-08-12T01:00:24.880Z,51.23
2022-08-12T01:02:58.604Z,51.64
2022-08-12T01:05:45.093Z,51.33
2022-08-12T01:08:31.305Z,52.03
2022-08-12T01:11:17.169Z,51.65
2022-08-12T01:13:48.850Z,51.74
2022-08-12T01:16:22.437Z,51.73
2022-08-12T01:18:51.948Z,52.42
2022-08-12T01:21:27.712Z,52.18
2022-08-12T01:24:31.180Z,52.42
2022-08-12T01:27:00.246Z,52.91
2022-08-12T01:29:33.020Z,52.20
2022-08-12T01:32:08.012Z,52.03
2022-08-12T01:34:38.675Z,52.77
2022-08-12T01:37:09.256Z,52.41
2022-08-12T01:40:32.029Z,52.49
2022-08-12T01:42:55.518Z,52.75
2022-08-12T01:45:24.579Z,52.34
2022-08-12T01:48:12.908Z,52.78
2022-08-12T01:51:13.384Z,53.07
2022-08-12T01:54:14.041Z,53.27
2022-08-12T01:56:59.641Z,53.17
2022-08-12T01:59:56.474Z,53.12
2022-08-12T02:02:37.161Z,53.06
2022-08-12T02:05:45.837Z,53.28
2022-08-12T02:09:10.734Z,53.82
2022-08-12T02:12:09.454Z,53.26
2022-08-12T02:14:46.249Z,53.58
2022-08-12T02:17:54.645Z,53.99
2022-08-12T02:20:52.005Z,54.03
2022-08-12T02:23:26.543Z,53.95
2022-08-12T02:25:59.584Z,54.27
2022-08-12T02:28:27.164Z,54.76
2022-08-12T02:30:55.623Z,54.66
2022-08-12T02:33:23.262Z,54.96
2022-08-12T02:35:51.536Z,54.83
2022-08-12T02:38:21.660Z,55.34
2022-08-12T02:40:54.875Z,55.43
2022-08-12T02:43:50.806Z,55.37
2022-08-12T02:46:29.143Z,55.95
2022-08-12T02:49:04.008Z,55.64
2022-08-12T02:51:34.868Z,55.90
2022-08-12T02:54:06.177Z,55.92
2022-08-12T02:56:50.286Z,55.99
2022-08-12T02:59:22.647Z,56.30
2022-08-12T03:01:56.581Z,55.87
2022-08-12T03:04:30.675Z,56.26
2022-08-12T03:07:14.411Z,56.71
2022-08-12T03:10:16.093Z,57.08
2022-08-12T03:12:49.050Z,56.75
2022-08-12T03:15:22.804Z,56.77
2022-08-12T03:18:29.277Z,57.11
2022-08-12T03:20:59.326Z,56.79
2022-08-12T03:23:30.830Z,57.15
2022-08-12T03:26:03.151Z,56.51
2022-08-12T03:28:54.236Z,56.63
2022-08-12T03:31:30.794Z,56.57
2022-08-12T03:34:07.046Z,56.68
2022-08-12T03:36:37.206Z,56.72
2022-08-12T03:39:16.701Z,56.53
2022-08-12T03:41:58.443Z,56.55
2022-08-12T03:45:51.614Z,56.46
2022-08-12T03:48:39.285Z,56.92
2022-08-12T03:51:24.855Z,56.69
2022-08-12T03:54:11.707Z,57.18
2022-08-12T03:56:58.125Z,57.22
2022-08-12T03:59:43.954Z,56.88
2022-08-12T04:02:17.750Z,57.45
2022-08-12T04:04:46.377Z,57.63
2022-08-12T04:07:16.142Z,58.03
2022-08-12T04:09:46.006Z,57.84
2022-08-12T04:12:32.635Z,57.91
2022-08-12T04:15:01.210Z,57.94
2022-08-12T04:17:28.591Z,58.21
2022-08-12T04:19:58.026Z,58.30
2022-08-12T04:22:30.269Z,58.37
2022-08-12T04:25:02.759Z,58.19
2022-08-12T04:27:31.914Z,58.63
2022-08-12T04:30:30.843Z,58.53
2022-08-12T04:32:49.953Z,58.21
2022-08-12T04:35:17.875Z,58.15
2022-08-12T04:37:58.983Z,58.20
2022-08-12T04:40:31.135Z,58.10
2022-08-12T04:43:01.113Z,58.07
2022-08-12T04:45:29.379Z,58.07
2022-08-12T04:47:56.877Z,58.20
2022-08-12T04:50:33.766Z,57.75
2022-08-12T04:53:08.936Z,57.75
2022-08-12T04:55:38.597Z,57.39
2022-08-12T04:58:07.257Z,57.29
2022-08-12T05:00:35.181Z,57.19
2022-08-12T05:03:02.174Z,57.07
2022-08-12T05:05:35.231Z,57.49
2022-08-12T05:08:03.993Z,57.20
2022-08-12T05:10:33.370Z,57.04
2022-08-12T05:13:09.403Z,56.91
2022-08-12T05:16:03.971Z,57.51
2022-08-12T05:18:29.228Z,56.91
2022-08-12T05:20:58.763Z,56.04
2022-08-12T05:23:26.076Z,55.99
2022-08-12T05:25:57.052Z,55.85
2022-08-12T05:28:27.014Z,56.04
2022-08-12T05:30:55.024Z,54.79
2022-08-12T05:33:26.505Z,54.84
2022-08-12T05:35:53.525Z,53.98
2022-08-12T05:38:39.334Z,53.63
2022-08-12T05:41:18.911Z,53.00
2022-08-12T05:44:08.045Z,53.56
2022-08-12T05:46:36.994Z,52.28
2022-08-12T05:49:05.551Z,51.86
2022-08-12T05:51:40.544Z,50.94
2022-08-12T05:54:09.146Z,50.55
2022-08-12T05:56:36.920Z,50.27
2022-08-12T05:59:09.318Z,49.44
2022-08-12T06:02:11.956Z,49.21
2022-08-12T06:04:24.018Z,47.88
2022-08-12T06:06:53.247Z,48.56
2022-08-12T06:09:22.341Z,47.70
2022-08-12T06:12:05.434Z,46.44
2022-08-12T06:14:38.814Z,46.54
2022-08-12T06:17:08.709Z,45.68
2022-08-12T06:20:22.810Z,45.03
2022-08-12T06:22:25.926Z,45.08
2022-08-12T06:24:53.469Z,44.12
2022-08-12T06:27:21.480Z,43.29
2022-08-12T06:30:09.343Z,44.37
2022-08-12T06:32:35.450Z,44.46
2022-08-12T06:35:24.167Z,43.73
2022-08-12T06:37:57.042Z,43.93
2022-08-12T06:40:44.176Z,43.47
2022-08-12T06:43:11.026Z,42.25
2022-08-12T06:45:47.201Z,41.45
2022-08-12T06:48:14.930Z,40.87
2022-08-12T06:50:42.551Z,40.59
2022-08-12T06:53:11.263Z,39.71
2022-08-12T06:55:39.396Z,40.60
2022-08-12T06:58:25.077Z,40.15
2022-08-12T07:00:52.132Z,40.16
2022-08-12T07:03:25.664Z,39.34
2022-08-12T07:05:52.562Z,39.54
2022-08-12T07:08:19.468Z,39.35
2022-08-12T07:10:57.314Z,39.72
2022-08-12T07:13:25.077Z,38.82
2022-08-12T07:15:56.526Z,38.69
2022-08-12T07:18:30.054Z,39.03
2022-08-12T07:20:58.213Z,38.86
2022-08-12T07:23:25.035Z,39.20
2022-08-12T07:25:56.445Z,39.14
2022-08-12T07:28:28.040Z,38.55
2022-08-12T07:30:57.188Z,39.05
2022-08-12T07:33:28.677Z,39.36
2022-08-12T07:35:58.306Z,39.64
2022-08-12T07:38:33.338Z,39.51
2022-08-12T07:41:15.743Z,39.76
2022-08-12T07:43:49.555Z,38.78
2022-08-12T07:46:39.099Z,38.90
2022-08-12T07:49:16.083Z,38.56
2022-08-12T07:51:44.741Z,37.58
2022-08-12T07:54:13.675Z,38.42
2022-08-12T07:56:43.251Z,37.73
2022-08-12T07:59:10.356Z,38.82
2022-08-12T08:01:38.345Z,39.29
2022-08-12T08:04:25.269Z,39.69
2022-08-12T08:06:52.423Z,39.78
2022-08-12T08:09:22.365Z,39.31
2022-08-12T08:12:08.192Z,38.43
2022-08-12T08:14:35.202Z,38.46
2022-08-12T08:17:03.681Z,39.41
2022-08-12T08:19:33.513Z,39.22
2022-08-12T08:22:32.032Z,38.83
2022-08-12T08:25:20.190Z,38.69
2022-08-12T08:27:54.840Z,38.44
2022-08-12T08:30:21.758Z,37.76
2022-08-12T08:32:48.716Z,37.91
2022-08-12T08:35:15.878Z,38.11
2022-08-12T08:37:46.958Z,37.95
2022-08-12T08:40:34.087Z,38.77
2022-08-12T08:43:01.195Z,38.02
2022-08-12T08:45:28.737Z,37.20
2022-08-12T08:48:00.091Z,37.11
2022-08-12T08:50:27.503Z,36.23
2022-08-12T08:52:54.351Z,36.30
2022-08-12T08:55:30.028Z,36.82
2022-08-12T08:58:00.354Z,36.48
2022-08-12T09:00:27.552Z,37.05
2022-08-12T09:02:58.673Z,37.24
2022-08-12T09:05:27.919Z,36.63
2022-08-12T09:08:09.101Z,36.15
2022-08-12T09:10:45.346Z,35.88
2022-08-12T09:13:29.377Z,36.22
2022-08-12T09:16:16.309Z,35.42
2022-08-12T09:18:52.147Z,35.03
2022-08-12T09:21:54.095Z,34.70
2022-08-12T09:24:22.224Z,35.40
2022-08-12T09:26:49.687Z,35.53
2022-08-12T09:30:10.787Z,35.36
2022-08-12T09:32:11.580Z,35.27
2022-08-12T09:34:56.817Z,35.91
2022-08-12T09:37:26.483Z,36.48
2022-08-12T09:40:05.288Z,38.09
2022-08-12T09:43:16.798Z,36.05
2022-08-12T09:46:12.070Z,36.60
2022-08-12T09:48:36.589Z,35.94
2022-08-12T09:51:17.086Z,36.33
2022-08-12T09:54:05.494Z,36.11
2022-08-12T09:56:58.401Z,35.34
2022-08-12T10:00:17.330Z,34.98
2022-08-12T10:02:45.959Z,35.85
2022-08-12T10:04:59.483Z,36.60
2022-08-12T10:07:28.676Z,36.16
2022-08-12T10:10:23.056Z,36.02
2022-08-12T10:13:40.050Z,34.73
2022-08-12T10:16:06.352Z,34.62
2022-08-12T10:18:37.265Z,34.73
2022-08-12T10:21:37.533Z,33.95
2022-08-12T10:24:08.285Z,32.34
2022-08-12T10:26:56.621Z,31.30
2022-08-12T10:30:03.670Z,30.37
2022-08-12T10:32:44.341Z,31.50
2022-08-12T10:35:15.344Z,32.17
2022-08-12T10:38:33.380Z,33.48
2022-08-12T10:40:33.420Z,31.69
2022-08-12T10:43:20.097Z,30.82
2022-08-12T10:45:51.731Z,30.98
2022-08-12T10:48:27.110Z,30.83
2022-08-12T10:51:51.830Z,31.02
2022-08-12T10:54:00.972Z,29.63
2022-08-12T10:56:34.836Z,30.11
2022-08-12T10:59:05.105Z,29.80
2022-08-12T11:04:18.410Z,28.37
2022-08-12T11:04:34.192Z,28.55
2022-08-12T11:08:35.126Z,29.87
2022-08-12T11:10:00.787Z,28.70
2022-08-12T11:12:56.674Z,29.43
2022-08-12T11:15:32.938Z,29.10
2022-08-12T11:18:07.652Z,29.09
2022-08-12T11:20:39.585Z,29.95
2022-08-12T11:23:25.206Z,31.46
2022-08-12T11:25:57.517Z,30.48
2022-08-12T11:28:34.152Z,29.96
2022-08-12T11:31:04.078Z,29.07
2022-08-12T11:34:04.362Z,29.32
2022-08-12T11:36:18.282Z,29.89
2022-08-12T11:38:50.792Z,29.85
2022-08-12T11:41:31.721Z,29.36
2022-08-12T11:44:35.278Z,27.63
2022-08-12T11:46:53.231Z,27.67
2022-08-12T11:49:30.826Z,26.83
2022-08-12T11:52:02.006Z,27.23
2022-08-12T11:54:30.175Z,26.97
2022-08-12T11:57:02.521Z,27.03
2022-08-12T12:02:21.312Z,25.27
2022-08-12T12:04:52.571Z,26.74
2022-08-12T12:07:22.568Z,25.81
2022-08-12T12:09:52.899Z,25.11
2022-08-12T12:12:22.898Z,25.16
2022-08-12T12:14:54.673Z,25.28
2022-08-12T12:17:38.003Z,25.22
2022-08-12T12:20:09.358Z,25.33
2022-08-12T12:22:41.773Z,25.85
2022-08-12T12:25:12.864Z,26.72
2022-08-12T12:28:04.018Z,27.80
2022-08-12T12:30:37.238Z,28.36
2022-08-12T12:33:06.196Z,28.42
2022-08-12T12:36:17.148Z,28.49
2022-08-12T12:38:21.057Z,27.30
2022-08-12T12:40:52.963Z,27.29
2022-08-12T12:43:28.687Z,25.78
2022-08-12T12:46:08.773Z,25.98
2022-08-12T12:48:35.747Z,25.76
2022-08-12T12:51:48.465Z,25.81
2022-08-12T12:54:07.523Z,25.73
2022-08-12T12:56:40.364Z,26.09
2022-08-12T12:59:07.476Z,25.41
2022-08-12T13:01:55.093Z,26.26
2022-08-12T13:04:22.531Z,26.57
2022-08-12T13:06:52.068Z,26.80
2022-08-12T13:09:22.801Z,26.88
2022-08-12T13:11:53.478Z,26.37
2022-08-12T13:14:28.275Z,26.90
2022-08-12T13:16:57.462Z,25.27
2022-08-12T13:19:37.478Z,26.17
2022-08-12T13:22:18.456Z,25.69
2022-08-12T13:24:54.507Z,26.58
2022-08-12T13:27:36.415Z,26.06
2022-08-12T13:30:11.282Z,25.69
2022-08-12T13:32:40.577Z,25.94
2022-08-12T13:35:20.284Z,26.35
2022-08-12T13:37:57.257Z,25.36
2022-08-12T13:40:28.395Z,25.19
2022-08-12T13:43:01.702Z,25.22
2022-08-12T13:45:31.106Z,24.99
2022-08-12T13:48:03.777Z,25.56
2022-08-12T13:50:36.240Z,26.43
2022-08-12T13:53:24.061Z,26.67
2022-08-12T13:55:59.446Z,27.07
2022-08-12T13:58:30.199Z,26.57
2022-08-12T14:00:58.549Z,25.76
2022-08-12T14:03:28.636Z,25.49
2022-08-12T14:06:15.387Z,26.28
2022-08-12T14:08:43.268Z,26.18
2022-08-12T14:11:12.617Z,26.14
2022-08-12T14:14:03.754Z,27.66
2022-08-12T14:16:37.384Z,26.82
2022-08-12T14:19:22.577Z,26.42
2022-08-12T14:22:00.815Z,24.49
2022-08-12T14:24:36.951Z,23.81
2022-08-12T14:27:10.420Z,22.43
2022-08-12T14:30:04.483Z,23.37
2022-08-12T14:32:34.639Z,22.99
2022-08-12T14:35:05.106Z,22.72
2022-08-12T14:37:55.574Z,22.61
2022-08-12T14:40:27.763Z,22.05
2022-08-12T14:42:57.100Z,21.59
2022-08-12T14:45:37.191Z,22.07
2022-08-12T14:48:13.388Z,21.66
2022-08-12T14:51:09.568Z,21.70
2022-08-12T14:59:57.380Z,21.72
2022-08-12T15:02:26.445Z,22.23
2022-08-12T15:04:58.989Z,24.68
2022-08-12T15:07:33.786Z,25.13
2022-08-12T15:10:31.237Z,26.10
2022-08-12T15:12:59.065Z,27.50
2022-08-12T15:15:25.892Z,28.73
2022-08-12T15:18:02.464Z,28.51
2022-08-12T15:20:37.593Z,29.78
2022-08-12T15:23:17.524Z,30.45
2022-08-12T15:26:02.911Z,29.63
2022-08-12T15:28:34.121Z,26.32
2022-08-12T15:31:02.681Z,25.30
2022-08-12T15:33:46.016Z,26.32
2022-08-12T15:36:14.614Z,27.87
2022-08-12T15:38:46.434Z,28.92
2022-08-12T15:41:15.330Z,29.20
2022-08-12T15:44:17.128Z,29.86
2022-08-12T15:46:32.532Z,29.73
2022-08-12T15:48:59.529Z,30.20
2022-08-12T15:51:59.921Z,30.09
2022-08-12T15:54:33.781Z,30.05
2022-08-12T15:57:07.556Z,30.19
2022-08-12T15:59:51.986Z,30.79
2022-08-12T16:02:29.796Z,31.98
2022-08-12T16:04:57.601Z,33.44
2022-08-12T16:07:26.000Z,32.86
2022-08-12T16:10:05.367Z,33.81
2022-08-12T16:12:55.009Z,33.98
2022-08-12T16:15:26.351Z,33.85
2022-08-12T16:18:20.030Z,34.38
2022-08-12T16:20:42.548Z,34.42
2022-08-12T16:23:26.703Z,34.95
2022-08-12T16:26:14.904Z,35.73
2022-08-12T16:28:44.342Z,35.27
2022-08-12T16:31:22.605Z,35.12
2022-08-12T16:33:59.849Z,34.07
2022-08-12T16:36:29.440Z,34.59
2022-08-12T16:38:56.917Z,34.94
2022-08-12T16:41:23.880Z,34.99
2022-08-12T16:43:53.293Z,35.48
2022-08-12T16:46:31.787Z,36.19
2022-08-12T16:49:08.658Z,36.45
2022-08-12T16:51:41.792Z,37.15
2022-08-12T16:54:16.115Z,36.91
2022-08-12T16:56:55.337Z,36.92
2022-08-12T16:59:52.728Z,37.22
2022-08-12T17:02:30.081Z,37.26
2022-08-12T17:05:04.626Z,37.51
2022-08-12T17:07:38.138Z,37.97
2022-08-12T17:10:13.838Z,37.67
2022-08-12T17:12:45.419Z,37.79
2022-08-12T17:15:50.904Z,37.54
2022-08-12T17:18:39.333Z,37.77
2022-08-12T17:20:49.559Z,37.60
2022-08-12T17:23:19.261Z,37.50
2022-08-12T17:25:52.910Z,38.46
2022-08-12T17:28:21.403Z,38.48
2022-08-12T17:30:57.312Z,38.47
2022-08-12T17:33:27.776Z,38.88
2022-08-12T17:36:02.845Z,38.97
2022-08-12T17:38:29.694Z,39.09
2022-08-12T17:40:57.653Z,39.42
2022-08-12T17:43:57.797Z,38.96
2022-08-12T17:46:23.633Z,38.58
2022-08-12T17:48:54.902Z,38.56
2022-08-12T17:51:24.283Z,38.17
2022-08-12T17:54:11.256Z,38.43
2022-08-12T17:56:41.147Z,38.53
2022-08-12T17:59:12.475Z,38.72
2022-08-12T18:01:44.453Z,38.79
2022-08-12T18:04:23.166Z,39.05
2022-08-12T18:07:02.259Z,39.20
2022-08-12T18:09:32.066Z,39.48
2022-08-12T18:12:24.494Z,39.44
2022-08-12T18:15:01.887Z,39.81
2022-08-12T18:17:31.306Z,39.60
2022-08-12T18:20:05.480Z,39.63
2022-08-12T18:22:36.276Z,40.34
2022-08-12T18:26:12.730Z,40.62
2022-08-12T18:28:15.404Z,40.45
2022-08-12T18:30:52.206Z,40.56
2022-08-12T18:33:24.599Z,40.80
2022-08-12T18:35:55.706Z,41.25
2022-08-12T18:38:25.829Z,41.58
2022-08-12T18:41:21.590Z,41.44
2022-08-12T18:44:01.253Z,42.16
2022-08-12T18:46:55.338Z,42.52
2022-08-12T18:49:34.894Z,42.94
2022-08-12T18:52:07.762Z,42.86
2022-08-12T18:54:53.313Z,42.87
2022-08-12T18:58:06.222Z,43.14
2022-08-12T19:00:21.181Z,43.51
2022-08-12T19:02:51.072Z,43.96
2022-08-12T19:05:17.930Z,43.77
2022-08-12T19:08:00.148Z,44.29
2022-08-12T19:10:30.230Z,44.46
2022-08-12T19:13:23.530Z,44.65
2022-08-12T19:15:54.538Z,45.33
2022-08-12T19:18:25.760Z,45.24
2022-08-12T19:20:56.714Z,45.72
2022-08-12T19:23:25.421Z,46.01
2022-08-12T19:26:05.069Z,46.02
2022-08-12T19:28:34.437Z,46.45
2022-08-12T19:31:44.586Z,46.33
2022-08-12T19:36:14.470Z,47.40
2022-08-12T19:38:03.546Z,47.26
2022-08-12T19:40:32.951Z,47.98
2022-08-12T19:43:20.214Z,47.25
2022-08-12T19:45:56.783Z,47.38
2022-08-12T19:48:30.412Z,47.72
2022-08-12T19:50:58.086Z,47.57
2022-08-12T19:53:27.454Z,47.71
2022-08-12T19:55:57.312Z,47.69
2022-08-12T19:58:24.949Z,47.91
2022-08-12T20:00:53.762Z,47.31
2022-08-12T20:03:40.435Z,47.90
2022-08-12T20:06:16.020Z,47.63
2022-08-12T20:08:56.503Z,48.25
2022-08-12T20:12:12.720Z,48.50
2022-08-12T20:14:19.843Z,48.26
2022-08-12T20:16:57.828Z,48.33
2022-08-12T20:20:01.620Z,48.87
2022-08-12T20:22:23.979Z,48.95
2022-08-12T20:24:55.219Z,49.13
2022-08-12T20:27:29.691Z,49.11
2022-08-12T20:30:13.551Z,49.19
2022-08-12T20:32:55.469Z,49.24
2022-08-12T20:35:25.139Z,48.94
2022-08-12T20:38:26.556Z,49.19
2022-08-12T20:40:55.838Z,49.51
2022-08-12T20:43:28.444Z,49.82
2022-08-12T20:45:59.200Z,49.51
2022-08-12T20:48:29.379Z,49.70
2022-08-12T20:51:04.214Z,49.39
2022-08-12T20:53:54.291Z,49.37
2022-08-12T20:56:36.686Z,50.04
2022-08-12T20:59:10.431Z,49.95
2022-08-12T21:01:47.784Z,50.42
2022-08-12T21:04:36.598Z,50.11
2022-08-12T21:07:09.457Z,50.33
2022-08-12T21:09:44.136Z,50.40
2022-08-12T21:12:27.614Z,50.68
2022-08-12T21:15:16.596Z,51.02
2022-08-12T21:18:08.885Z,50.96
2022-08-12T21:20:35.514Z,51.16
2022-08-12T21:23:05.735Z,51.22
2022-08-12T21:25:44.481Z,52.01
2022-08-12T21:28:14.036Z,51.25
2022-08-12T21:31:11.222Z,51.31
2022-08-12T21:33:32.134Z,51.51
2022-08-12T21:36:22.662Z,51.42
2022-08-12T21:39:35.817Z,52.24
2022-08-12T21:42:06.942Z,51.95
2022-08-12T21:45:46.608Z,52.35
2022-08-12T21:47:24.244Z,52.23
2022-08-12T21:50:06.626Z,52.44
2022-08-12T21:52:41.013Z,52.85
2022-08-12T21:55:18.784Z,53.04
2022-08-12T21:57:54.933Z,53.11
2022-08-12T22:00:34.281Z,53.76
2022-08-12T22:04:03.694Z,53.52
2022-08-12T22:06:31.236Z,53.78
2022-08-12T22:09:17.237Z,54.02
2022-08-12T22:11:58.650Z,54.33
2022-08-12T22:14:28.761Z,53.82
2022-08-12T22:16:57.958Z,53.66
2022-08-12T22:19:26.769Z,53.95
2022-08-12T22:21:55.879Z,54.44
2022-08-12T22:24:26.419Z,54.23
2022-08-12T22:26:55.491Z,54.53
2022-08-12T22:29:40.799Z,55.44
2022-08-12T22:32:11.515Z,55.16
2022-08-12T22:34:39.478Z,55.47
2022-08-12T22:37:19.858Z,55.73
2022-08-12T22:39:49.183Z,56.25
2022-08-12T22:42:41.023Z,56.36
2022-08-12T22:45:27.555Z,56.57
2022-08-12T22:47:56.036Z,56.91
2022-08-12T22:50:28.531Z,57.17
2022-08-12T22:53:15.160Z,57.80
2022-08-12T22:56:00.501Z,58.16
2022-08-12T22:58:33.537Z,58.63
2022-08-12T23:01:01.898Z,58.85
2022-08-12T23:03:48.281Z,59.16
2022-08-12T23:06:23.674Z,59.29
2022-08-12T23:08:52.352Z,59.38
2022-08-12T23:11:23.508Z,59.96
2022-08-12T23:13:54.947Z,60.41
2022-08-12T23:16:31.616Z,59.62
2022-08-12T23:19:23.221Z,59.65
2022-08-12T23:22:06.761Z,59.67
2022-08-12T23:24:55.541Z,59.49
2022-08-12T23:27:52.051Z,59.85
2022-08-12T23:30:32.307Z,59.54
2022-08-12T23:33:13.121Z,60.09
2022-08-12T23:35:54.062Z,60.01
2022-08-12T23:38:32.236Z,60.54
2022-08-12T23:41:02.266Z,61.12
2022-08-12T23:43:39.897Z,61.32
2022-08-12T23:46:19.208Z,61.76
2022-08-12T23:48:48.084Z,61.95
2022-08-12T23:51:22.353Z,61.33
2022-08-12T23:54:00.136Z,61.22
2022-08-12T23:56:32.846Z,62.08
2022-08-12T23:59:07.688Z,61.97
